createdAt,value
2023-05-07T00:00:12.340Z,99.90
2023-05-07T00:05:11.234Z,99.90
2023-05-07T00:10:13.586Z,99.90
2023-05-07T00:15:12.570Z,99.90
2023-05-07T00:20:11.944Z,99.90
2023-05-07T00:25:12.366Z,99.90
2023-05-07T00:30:11.647Z,99.90
2023-05-07T00:35:11.093Z,99.90
2023-05-07T00:40:12.065Z,99.90
2023-05-07T00:45:11.988Z,99.90
2023-05-07T00:50:12.097Z,99.90
2023-05-07T00:55:13.095Z,99.90
2023-05-07T01:00:14.182Z,99.90
2023-05-07T01:05:16.688Z,99.90
2023-05-07T01:10:17.153Z,99.90
2023-05-07T01:15:15.906Z,99.90
2023-05-07T01:20:15.305Z,99.90
2023-05-07T01:25:17.356Z,99.90
2023-05-07T01:30:22.873Z,99.90
2023-05-07T01:35:24.948Z,99.90
2023-05-07T01:40:25.663Z,99.90
2023-05-07T01:45:23.907Z,99.90
2023-05-07T01:50:22.973Z,99.90
2023-05-07T01:55:21.370Z,99.90
2023-05-07T02:00:22.495Z,99.90
2023-05-07T02:05:20.911Z,99.90
2023-05-07T02:10:25.236Z,99.90
2023-05-07T02:15:24.843Z,99.90
2023-05-07T02:20:24.256Z,99.90
2023-05-07T02:25:22.464Z,99.90
2023-05-07T02:30:22.403Z,99.90
2023-05-07T02:35:26.885Z,99.90
2023-05-07T02:40:25.741Z,99.90
2023-05-07T02:45:24.003Z,99.90
2023-05-07T02:50:26.344Z,99.90
2023-05-07T02:55:25.085Z,99.90
2023-05-07T03:00:24.261Z,99.90
2023-05-07T03:05:33.741Z,99.90
2023-05-07T03:10:32.051Z,99.90
2023-05-07T03:15:30.893Z,99.90
2023-05-07T03:20:29.663Z,99.90
2023-05-07T03:25:31.152Z,99.90
2023-05-07T03:30:29.852Z,99.90
2023-05-07T03:35:28.079Z,99.90
2023-05-07T03:40:26.414Z,99.90
2023-05-07T03:45:27.608Z,99.90
2023-05-07T03:50:40.818Z,99.90
2023-05-07T03:55:39.709Z,99.90
2023-05-07T04:00:41.107Z,99.90
2023-05-07T04:05:54.961Z,99.90
2023-05-07T04:10:57.299Z,99.90
2023-05-07T04:15:58.926Z,99.90
2023-05-07T04:20:58.410Z,99.90
2023-05-07T04:25:57.144Z,99.90
2023-05-07T04:31:06.593Z,99.90
2023-05-07T04:36:07.524Z,99.90
2023-05-07T04:41:12.281Z,99.90
2023-05-07T04:46:13.995Z,99.90
2023-05-07T04:51:14.225Z,99.90
2023-05-07T04:56:12.536Z,99.90
2023-05-07T05:01:15.590Z,99.90
2023-05-07T05:06:14.112Z,99.90
2023-05-07T05:11:12.347Z,99.90
2023-05-07T05:16:11.216Z,99.90
2023-05-07T05:21:11.818Z,99.90
2023-05-07T05:26:11.256Z,99.90
2023-05-07T05:31:09.938Z,99.90
2023-05-07T05:36:11.891Z,99.90
2023-05-07T05:41:10.869Z,99.90
2023-05-07T05:46:10.091Z,99.90
2023-05-07T05:51:08.459Z,99.90
2023-05-07T05:56:09.132Z,99.90
2023-05-07T06:01:08.816Z,99.90
2023-05-07T06:06:08.887Z,99.90
2023-05-07T06:11:08.548Z,99.90
2023-05-07T06:16:09.810Z,99.90
2023-05-07T06:21:09.077Z,99.90
2023-05-07T06:26:09.201Z,99.90
2023-05-07T06:31:16.370Z,99.90
2023-05-07T06:36:19.034Z,99.90
2023-05-07T06:41:19.840Z,99.90
2023-05-07T06:46:18.586Z,99.90
2023-05-07T06:51:16.917Z,99.90
2023-05-07T06:56:15.461Z,99.90
2023-05-07T07:01:15.201Z,99.90
2023-05-07T07:06:15.090Z,99.90
2023-05-07T07:11:13.862Z,99.90
2023-05-07T07:16:12.237Z,99.90
2023-05-07T07:21:12.122Z,99.90
2023-05-07T07:26:10.686Z,99.90
2023-05-07T07:31:09.004Z,99.90
2023-05-07T07:36:08.530Z,99.90
2023-05-07T07:41:10.953Z,99.90
2023-05-07T07:46:09.389Z,99.90
2023-05-07T07:51:08.251Z,99.90
2023-05-07T07:56:08.521Z,99.90
2023-05-07T08:01:07.140Z,99.90
2023-05-07T08:06:06.213Z,99.90
2023-05-07T08:11:07.976Z,99.90
2023-05-07T08:16:08.131Z,99.90
2023-05-07T08:21:08.245Z,99.90
2023-05-07T08:26:10.126Z,99.90
2023-05-07T08:31:09.168Z,99.90
2023-05-07T08:36:10.652Z,99.90
2023-05-07T08:41:12.602Z,99.90
2023-05-07T08:46:13.834Z,99.90
2023-05-07T08:51:15.696Z,99.90
2023-05-07T08:56:16.412Z,99.90
2023-05-07T09:01:16.954Z,99.90
2023-05-07T09:06:18.586Z,99.90
2023-05-07T09:11:18.753Z,99.90
2023-05-07T09:16:17.603Z,99.90
2023-05-07T09:21:18.486Z,99.90
2023-05-07T09:26:20.173Z,99.90
2023-05-07T09:31:21.575Z,99.90
2023-05-07T09:36:20.899Z,99.90
2023-05-07T09:41:22.212Z,99.90
2023-05-07T09:46:40.639Z,99.90
2023-05-07T09:51:51.377Z,99.90
2023-05-07T09:56:54.575Z,99.90
2023-05-07T10:02:01.499Z,99.90
2023-05-07T10:07:02.340Z,99.90
2023-05-07T10:12:06.783Z,99.90
2023-05-07T10:17:06.102Z,99.90
2023-05-07T10:22:07.491Z,99.90
2023-05-07T10:27:16.911Z,99.90
2023-05-07T10:32:41.053Z,99.90
2023-05-07T10:37:43.127Z,99.90
2023-05-07T10:42:56.865Z,99.90
2023-05-07T10:48:27.135Z,99.90
2023-05-07T10:53:30.926Z,99.90
2023-05-07T10:58:45.704Z,99.90
2023-05-07T11:04:27.726Z,99.90
2023-05-07T11:09:59.494Z,99.90
2023-05-07T11:15:17.024Z,99.90
2023-05-07T11:20:16.596Z,99.90
2023-05-07T11:25:22.168Z,99.90
2023-05-07T11:30:30.746Z,99.90
2023-05-07T11:35:29.313Z,99.90
2023-05-07T11:40:29.745Z,99.90
2023-05-07T11:45:29.338Z,99.90
2023-05-07T11:50:27.545Z,99.90
2023-05-07T11:55:27.158Z,99.90
2023-05-07T12:00:25.342Z,99.90
2023-05-07T12:05:24.925Z,99.90
2023-05-07T12:10:23.295Z,99.90
2023-05-07T12:15:25.103Z,99.90
2023-05-07T12:20:24.951Z,99.90
2023-05-07T12:25:23.092Z,99.90
2023-05-07T12:30:21.608Z,99.90
2023-05-07T12:35:19.854Z,99.90
2023-05-07T12:40:19.404Z,99.90
2023-05-07T12:45:18.942Z,99.90
2023-05-07T12:50:18.122Z,99.90
2023-05-07T12:55:17.748Z,99.90
2023-05-07T13:00:18.348Z,99.90
2023-05-07T13:05:16.405Z,99.90
2023-05-07T13:10:14.772Z,98.70
2023-05-07T13:15:13.243Z,98.00
2023-05-07T13:20:14.690Z,99.90
2023-05-07T13:25:12.947Z,99.90
2023-05-07T13:30:11.775Z,98.00
2023-05-07T13:35:10.405Z,97.70
2023-05-07T13:40:11.900Z,98.00
2023-05-07T13:45:11.884Z,96.30
2023-05-07T13:50:12.637Z,98.30
2023-05-07T13:55:12.647Z,97.10
2023-05-07T14:00:12.373Z,98.20
2023-05-07T14:05:14.637Z,97.50
2023-05-07T14:10:15.298Z,95.70
2023-05-07T14:15:13.896Z,98.80
2023-05-07T14:20:13.035Z,97.50
2023-05-07T14:25:11.941Z,97.50
2023-05-07T14:30:12.476Z,96.00
2023-05-07T14:35:11.338Z,97.70
2023-05-07T14:40:11.436Z,97.00
2023-05-07T14:45:13.120Z,98.00
2023-05-07T14:50:12.126Z,98.10
2023-05-07T14:55:11.054Z,97.10
2023-05-07T15:00:13.884Z,98.10
2023-05-07T15:05:12.536Z,98.10
2023-05-07T15:10:11.457Z,97.40
2023-05-07T15:15:12.908Z,97.40
2023-05-07T15:20:11.845Z,97.30
2023-05-07T15:25:11.086Z,98.30
2023-05-07T15:30:11.423Z,98.50
2023-05-07T15:35:11.811Z,98.70
2023-05-07T15:40:11.847Z,96.60
2023-05-07T15:45:12.018Z,97.60
2023-05-07T15:50:12.555Z,97.50
2023-05-07T15:55:11.444Z,96.70
2023-05-07T16:00:12.647Z,97.30
2023-05-07T16:05:13.388Z,95.90
2023-05-07T16:10:12.933Z,97.20
2023-05-07T16:15:12.584Z,97.10
2023-05-07T16:20:15.447Z,96.20
2023-05-07T16:25:14.822Z,95.80
2023-05-07T16:30:13.547Z,96.30
2023-05-07T16:35:13.589Z,97.20
2023-05-07T16:40:12.762Z,98.10
2023-05-07T16:45:12.183Z,97.40
2023-05-07T16:50:12.632Z,97.70
2023-05-07T16:55:11.877Z,98.30
2023-05-07T17:00:11.792Z,97.60
2023-05-07T17:05:12.134Z,98.10
2023-05-07T17:10:11.397Z,98.60
2023-05-07T17:15:10.959Z,98.10
2023-05-07T17:20:10.492Z,97.60
2023-05-07T17:25:12.315Z,97.80
2023-05-07T17:30:12.519Z,98.10
2023-05-07T17:35:11.427Z,98.70
2023-05-07T17:40:12.018Z,99.20
2023-05-07T17:45:11.995Z,99.70
2023-05-07T17:50:11.703Z,99.90
2023-05-07T17:55:12.165Z,99.90
2023-05-07T18:00:11.765Z,99.90
2023-05-07T18:05:10.784Z,99.90
2023-05-07T18:10:09.611Z,99.90
2023-05-07T18:15:10.598Z,99.60
2023-05-07T18:20:11.770Z,99.40
2023-05-07T18:25:10.392Z,99.90
2023-05-07T18:30:11.674Z,99.90
2023-05-07T18:35:10.536Z,99.90
2023-05-07T18:40:10.741Z,99.90
2023-05-07T18:45:11.261Z,99.90
2023-05-07T18:50:10.530Z,99.90
2023-05-07T18:55:10.816Z,99.90
2023-05-07T19:00:12.695Z,99.90
2023-05-07T19:05:11.222Z,99.90
2023-05-07T19:10:10.770Z,99.90
2023-05-07T19:15:11.553Z,99.90
2023-05-07T19:20:11.163Z,99.90
2023-05-07T19:25:10.179Z,99.90
2023-05-07T19:30:11.773Z,99.90
2023-05-07T19:35:10.850Z,99.90
2023-05-07T19:40:10.432Z,99.90
2023-05-07T19:45:10.499Z,99.90
2023-05-07T19:50:11.528Z,99.90
2023-05-07T19:55:10.436Z,99.90
2023-05-07T20:00:10.330Z,99.90
2023-05-07T20:05:15.960Z,99.90
2023-05-07T20:10:14.254Z,99.90
2023-05-07T20:15:13.097Z,99.90
2023-05-07T20:20:12.642Z,99.90
2023-05-07T20:25:13.628Z,99.90
2023-05-07T20:30:13.992Z,99.90
2023-05-07T20:35:12.650Z,99.90
2023-05-07T20:40:13.047Z,99.90
2023-05-07T20:45:12.627Z,99.90
2023-05-07T20:50:11.630Z,99.90
2023-05-07T20:55:10.690Z,99.90
2023-05-07T21:00:11.759Z,99.90
2023-05-07T21:05:10.452Z,99.90
2023-05-07T21:10:09.881Z,99.90
2023-05-07T21:15:11.418Z,99.90
2023-05-07T21:20:11.105Z,99.90
2023-05-07T21:25:12.585Z,99.90
2023-05-07T21:30:15.259Z,99.90
2023-05-07T21:35:13.608Z,99.90
2023-05-07T21:40:12.876Z,99.90
2023-05-07T21:45:14.078Z,99.90
2023-05-07T21:50:13.091Z,99.90
2023-05-07T21:55:11.729Z,99.90
2023-05-07T22:00:12.888Z,99.90
2023-05-07T22:05:11.428Z,99.90
2023-05-07T22:10:10.948Z,99.90
2023-05-07T22:15:10.149Z,99.90
2023-05-07T22:20:11.948Z,99.90
2023-05-07T22:25:10.874Z,99.90
2023-05-07T22:30:10.370Z,99.90
2023-05-07T22:35:11.262Z,99.90
2023-05-07T22:40:10.452Z,99.90
2023-05-07T22:45:09.872Z,99.90
2023-05-07T22:50:10.757Z,99.90
2023-05-07T22:55:09.623Z,99.90
2023-05-07T23:00:09.966Z,99.90
2023-05-07T23:05:10.137Z,99.90
2023-05-07T23:10:09.337Z,99.90
2023-05-07T23:15:09.001Z,99.90
2023-05-07T23:20:09.881Z,99.90
2023-05-07T23:25:09.510Z,99.90
2023-05-07T23:30:09.141Z,99.90
2023-05-07T23:35:10.073Z,99.90
2023-05-07T23:40:09.226Z,99.90
2023-05-07T23:45:08.126Z,99.90
2023-05-07T23:50:07.264Z,99.90
2023-05-07T23:55:08.644Z,99.90
